createdAt,value
2018-12-23T21:34:25.978Z,4.17
2018-12-23T21:37:46.388Z,4.73
2018-12-23T21:40:55.467Z,3.97
2018-12-23T21:43:52.629Z,4.10
2018-12-23T21:46:47.442Z,3.80
2018-12-23T21:49:53.642Z,3.80
2018-12-23T21:52:55.817Z,4.00
2018-12-23T21:56:05.970Z,3.63
2018-12-23T21:58:55.290Z,3.60
2018-12-23T22:02:08.448Z,3.77
2018-12-23T22:05:13.869Z,3.93
2018-12-23T22:08:17.474Z,3.90
2018-12-23T22:11:33.072Z,3.53
2018-12-23T22:13:58.518Z,3.63
2018-12-23T22:16:28.014Z,4.10
2018-12-23T22:18:58.014Z,3.63
2018-12-23T22:21:28.031Z,3.67
2018-12-23T22:23:57.562Z,3.37
2018-12-23T22:26:27.564Z,3.37
2018-12-23T22:28:57.369Z,3.07
2018-12-23T22:31:27.128Z,3.23
2018-12-23T22:33:56.637Z,2.40
2018-12-23T22:36:26.150Z,2.20
2018-12-23T22:38:55.694Z,2.23
2018-12-23T22:41:28.623Z,2.10
2018-12-23T22:43:58.381Z,2.40
2018-12-23T22:46:27.880Z,1.97
2018-12-23T22:48:57.390Z,2.27
2018-12-23T22:51:27.377Z,2.33
2018-12-23T22:53:56.878Z,2.47
2018-12-23T22:56:26.653Z,2.70
2018-12-23T22:58:56.153Z,2.50
2018-12-23T23:01:25.666Z,2.17
2018-12-23T23:03:55.165Z,2.20
2018-12-23T23:06:24.921Z,2.43
2018-12-23T23:08:54.427Z,2.20
2018-12-23T23:11:23.922Z,2.50
2018-12-23T23:13:53.669Z,2.43
2018-12-23T23:16:23.409Z,2.40
2018-12-23T23:18:53.006Z,2.20
2018-12-23T23:21:22.502Z,2.50
2018-12-23T23:23:52.028Z,2.33
2018-12-23T23:26:21.529Z,2.17
2018-12-23T23:28:51.034Z,2.23
2018-12-23T23:31:20.776Z,2.20
2018-12-23T23:33:50.290Z,2.50
2018-12-23T23:36:20.054Z,2.77
2018-12-23T23:38:49.577Z,2.30
2018-12-23T23:41:19.065Z,2.37
2018-12-23T23:43:48.561Z,2.27
2018-12-23T23:46:18.077Z,2.20
2018-12-23T23:48:48.061Z,2.40
2018-12-23T23:51:17.577Z,2.87
2018-12-23T23:53:47.093Z,2.90
2018-12-23T23:56:16.846Z,2.90
2018-12-23T23:58:46.346Z,3.00
